sensor_id;sensor_type;location;lat;lon;timestamp;pressure;altitude;pressure_sealevel;temperature;humidity
32237;BME280;18726;44.732;10.550;2023-02-13T00:00:36;103190.06;;;4.53;100.00
32237;BME280;18726;44.732;10.550;2023-02-13T00:03:40;103193.22;;;4.33;100.00
32237;BME280;18726;44.732;10.550;2023-02-13T00:06:44;103187.94;;;4.10;100.00
32237;BME280;18726;44.732;10.550;2023-02-13T00:09:50;103185.97;;;4.05;100.00
32237;BME280;18726;44.732;10.550;2023-02-13T00:12:54;103186.22;;;4.03;100.00
32237;BME280;18726;44.732;10.550;2023-02-13T00:15:59;103177.91;;;4.50;100.00
32237;BME280;18726;44.732;10.550;2023-02-13T00:19:03;103190.09;;;4.24;100.00
32237;BME280;18726;44.732;10.550;2023-02-13T00:22:07;103198.31;;;3.89;100.00
32237;BME280;18726;44.732;10.550;2023-02-13T00:25:11;103198.53;;;3.48;100.00
32237;BME280;18726;44.732;10.550;2023-02-13T00:28:15;103184.88;;;4.34;100.00
32237;BME280;18726;44.732;10.550;2023-02-13T00:31:20;103190.44;;;5.12;100.00
32237;BME280;18726;44.732;10.550;2023-02-13T00:34:24;103190.66;;;5.49;100.00
32237;BME280;18726;44.732;10.550;2023-02-13T00:37:27;103192.16;;;5.39;100.00
32237;BME280;18726;44.732;10.550;2023-02-13T00:40:31;103190.78;;;4.82;100.00
32237;BME280;18726;44.732;10.550;2023-02-13T00:43:36;103206.16;;;4.19;100.00
32237;BME280;18726;44.732;10.550;2023-02-13T00:46:40;103205.72;;;4.11;100.00
32237;BME280;18726;44.732;10.550;2023-02-13T00:49:44;103202.38;;;4.49;100.00
32237;BME280;18726;44.732;10.550;2023-02-13T00:52:47;103196.06;;;5.10;100.00
32237;BME280;18726;44.732;10.550;2023-02-13T00:55:51;103191.91;;;5.63;100.00
32237;BME280;18726;44.732;10.550;2023-02-13T00:58:55;103204.72;;;5.94;100.00
32237;BME280;18726;44.732;10.550;2023-02-13T01:02:01;103204.16;;;5.92;100.00
32237;BME280;18726;44.732;10.550;2023-02-13T01:05:05;103201.38;;;5.65;100.00
32237;BME280;18726;44.732;10.550;2023-02-13T01:08:10;103208.50;;;5.93;100.00
32237;BME280;18726;44.732;10.550;2023-02-13T01:11:14;103219.59;;;5.75;100.00
32237;BME280;18726;44.732;10.550;2023-02-13T01:14:21;103218.81;;;5.80;100.00
32237;BME280;18726;44.732;10.550;2023-02-13T01:17:26;103225.75;;;5.54;100.00
32237;BME280;18726;44.732;10.550;2023-02-13T01:20:32;103228.41;;;5.10;100.00
32237;BME280;18726;44.732;10.550;2023-02-13T01:23:37;103225.44;;;5.12;100.00
32237;BME280;18726;44.732;10.550;2023-02-13T01:26:41;103232.50;;;4.34;100.00
32237;BME280;18726;44.732;10.550;2023-02-13T01:29:45;103232.06;;;3.57;100.00
32237;BME280;18726;44.732;10.550;2023-02-13T01:32:49;103234.06;;;2.80;100.00
32237;BME280;18726;44.732;10.550;2023-02-13T01:35:53;103229.56;;;2.50;100.00
32237;BME280;18726;44.732;10.550;2023-02-13T01:38:58;103234.50;;;2.35;100.00
32237;BME280;18726;44.732;10.550;2023-02-13T01:42:01;103231.19;;;2.63;100.00
32237;BME280;18726;44.732;10.550;2023-02-13T01:45:25;103228.75;;;2.61;100.00
32237;BME280;18726;44.732;10.550;2023-02-13T01:48:29;103236.19;;;2.48;100.00
32237;BME280;18726;44.732;10.550;2023-02-13T01:51:34;103228.75;;;2.61;100.00
32237;BME280;18726;44.732;10.550;2023-02-13T01:54:39;103235.84;;;2.44;100.00
32237;BME280;18726;44.732;10.550;2023-02-13T01:57:48;103238.09;;;2.70;100.00
32237;BME280;18726;44.732;10.550;2023-02-13T02:00:54;103232.28;;;3.67;100.00
32237;BME280;18726;44.732;10.550;2023-02-13T02:04:30;103223.66;;;3.93;100.00
32237;BME280;18726;44.732;10.550;2023-02-13T02:07:35;103231.97;;;3.28;100.00
32237;BME280;18726;44.732;10.550;2023-02-13T02:10:43;103236.06;;;3.19;100.00
32237;BME280;18726;44.732;10.550;2023-02-13T02:13:47;103230.59;;;3.14;100.00
32237;BME280;18726;44.732;10.550;2023-02-13T02:16:51;103234.19;;;2.85;100.00
32237;BME280;18726;44.732;10.550;2023-02-13T02:38:05;103233.59;;;2.83;100.00
32237;BME280;18726;44.732;10.550;2023-02-13T02:41:14;103233.06;;;2.62;100.00
32237;BME280;18726;44.732;10.550;2023-02-13T02:44:55;103230.78;;;2.78;100.00
32237;BME280;18726;44.732;10.550;2023-02-13T02:48:06;103222.03;;;2.94;100.00
32237;BME280;18726;44.732;10.550;2023-02-13T02:52:14;103230.34;;;3.16;100.00
32237;BME280;18726;44.732;10.550;2023-02-13T02:55:29;103234.22;;;3.83;100.00
32237;BME280;18726;44.732;10.550;2023-02-13T02:58:43;103224.59;;;4.27;100.00
32237;BME280;18726;44.732;10.550;2023-02-13T03:02:11;103230.56;;;3.89;100.00
32237;BME280;18726;44.732;10.550;2023-02-13T03:05:34;103239.56;;;3.31;100.00
32237;BME280;18726;44.732;10.550;2023-02-13T03:09:03;103240.47;;;2.79;100.00
32237;BME280;18726;44.732;10.550;2023-02-13T03:12:48;103238.78;;;2.54;100.00
32237;BME280;18726;44.732;10.550;2023-02-13T03:16:17;103245.25;;;2.35;100.00
32237;BME280;18726;44.732;10.550;2023-02-13T03:19:54;103243.34;;;2.24;100.00
32237;BME280;18726;44.732;10.550;2023-02-13T03:26:40;103240.00;;;2.40;100.00
32237;BME280;18726;44.732;10.550;2023-02-13T03:30:02;103235.66;;;2.57;100.00
32237;BME280;18726;44.732;10.550;2023-02-13T03:33:13;103239.16;;;2.58;100.00
32237;BME280;18726;44.732;10.550;2023-02-13T03:40:02;103244.09;;;2.31;100.00
32237;BME280;18726;44.732;10.550;2023-02-13T03:43:11;103241.06;;;2.39;100.00
32237;BME280;18726;44.732;10.550;2023-02-13T03:46:18;103232.47;;;2.49;100.00
32237;BME280;18726;44.732;10.550;2023-02-13T03:49:27;103247.06;;;2.53;100.00
32237;BME280;18726;44.732;10.550;2023-02-13T03:52:54;103242.59;;;3.23;100.00
32237;BME280;18726;44.732;10.550;2023-02-13T03:56:01;103243.84;;;4.07;100.00
32237;BME280;18726;44.732;10.550;2023-02-13T03:59:33;103237.19;;;3.70;100.00
32237;BME280;18726;44.732;10.550;2023-02-13T04:06:14;103253.75;;;2.74;100.00
32237;BME280;18726;44.732;10.550;2023-02-13T04:09:19;103259.31;;;2.60;100.00
32237;BME280;18726;44.732;10.550;2023-02-13T04:12:36;103250.50;;;2.95;100.00
32237;BME280;18726;44.732;10.550;2023-02-13T04:16:00;103254.28;;;3.41;100.00
32237;BME280;18726;44.732;10.550;2023-02-13T04:19:07;103251.59;;;3.17;100.00
32237;BME280;18726;44.732;10.550;2023-02-13T04:22:12;103254.03;;;2.84;100.00
32237;BME280;18726;44.732;10.550;2023-02-13T04:25:16;103250.94;;;2.68;100.00
32237;BME280;18726;44.732;10.550;2023-02-13T04:28:21;103248.44;;;3.44;100.00
32237;BME280;18726;44.732;10.550;2023-02-13T04:31:24;103255.38;;;4.48;100.00
32237;BME280;18726;44.732;10.550;2023-02-13T04:34:28;103250.34;;;5.02;100.00
32237;BME280;18726;44.732;10.550;2023-02-13T04:37:32;103250.84;;;5.16;100.00
32237;BME280;18726;44.732;10.550;2023-02-13T04:40:36;103247.91;;;5.17;100.00
32237;BME280;18726;44.732;10.550;2023-02-13T04:43:40;103254.94;;;4.85;100.00
32237;BME280;18726;44.732;10.550;2023-02-13T04:46:43;103257.53;;;4.96;100.00
32237;BME280;18726;44.732;10.550;2023-02-13T04:49:47;103258.19;;;4.87;100.00
32237;BME280;18726;44.732;10.550;2023-02-13T04:52:55;103266.22;;;4.53;100.00
32237;BME280;18726;44.732;10.550;2023-02-13T04:55:59;103259.94;;;4.48;100.00
32237;BME280;18726;44.732;10.550;2023-02-13T04:59:03;103262.75;;;4.69;100.00
32237;BME280;18726;44.732;10.550;2023-02-13T05:02:07;103256.78;;;4.67;100.00
32237;BME280;18726;44.732;10.550;2023-02-13T05:05:11;103268.84;;;4.20;100.00
32237;BME280;18726;44.732;10.550;2023-02-13T05:08:14;103265.47;;;4.41;100.00
32237;BME280;18726;44.732;10.550;2023-02-13T05:11:18;103271.63;;;4.25;100.00
32237;BME280;18726;44.732;10.550;2023-02-13T05:14:22;103275.75;;;3.64;100.00
32237;BME280;18726;44.732;10.550;2023-02-13T05:17:26;103277.94;;;3.79;100.00
32237;BME280;18726;44.732;10.550;2023-02-13T05:20:29;103273.72;;;4.23;100.00
32237;BME280;18726;44.732;10.550;2023-02-13T05:23:33;103273.16;;;4.49;100.00
32237;BME280;18726;44.732;10.550;2023-02-13T05:26:37;103269.59;;;4.77;100.00
32237;BME280;18726;44.732;10.550;2023-02-13T05:29:40;103272.78;;;4.29;100.00
32237;BME280;18726;44.732;10.550;2023-02-13T05:32:44;103271.78;;;4.06;100.00
32237;BME280;18726;44.732;10.550;2023-02-13T05:35:48;103275.97;;;3.51;100.00
32237;BME280;18726;44.732;10.550;2023-02-13T05:38:52;103277.41;;;3.42;100.00
32237;BME280;18726;44.732;10.550;2023-02-13T05:41:56;103278.31;;;3.59;100.00
32237;BME280;18726;44.732;10.550;2023-02-13T05:44:59;103289.66;;;3.14;100.00
32237;BME280;18726;44.732;10.550;2023-02-13T05:48:03;103291.22;;;2.80;100.00
32237;BME280;18726;44.732;10.550;2023-02-13T05:51:07;103288.56;;;2.50;100.00
32237;BME280;18726;44.732;10.550;2023-02-13T05:54:11;103290.28;;;2.15;100.00
32237;BME280;18726;44.732;10.550;2023-02-13T05:57:14;103291.38;;;2.97;100.00
32237;BME280;18726;44.732;10.550;2023-02-13T06:00:19;103286.97;;;3.14;100.00
32237;BME280;18726;44.732;10.550;2023-02-13T06:03:23;103289.63;;;2.49;100.00
32237;BME280;18726;44.732;10.550;2023-02-13T06:06:28;103286.69;;;2.81;100.00
32237;BME280;18726;44.732;10.550;2023-02-13T06:09:31;103289.25;;;2.46;100.00
32237;BME280;18726;44.732;10.550;2023-02-13T06:12:34;103300.75;;;2.64;100.00
32237;BME280;18726;44.732;10.550;2023-02-13T06:15:38;103296.06;;;3.01;100.00
32237;BME280;18726;44.732;10.550;2023-02-13T06:18:42;103299.22;;;3.80;100.00
32237;BME280;18726;44.732;10.550;2023-02-13T06:21:45;103299.72;;;4.05;100.00
32237;BME280;18726;44.732;10.550;2023-02-13T06:24:49;103309.00;;;4.38;100.00
32237;BME280;18726;44.732;10.550;2023-02-13T06:27:53;103306.28;;;4.66;100.00
32237;BME280;18726;44.732;10.550;2023-02-13T06:30:57;103315.09;;;3.93;100.00
32237;BME280;18726;44.732;10.550;2023-02-13T06:34:00;103332.28;;;3.11;100.00
32237;BME280;18726;44.732;10.550;2023-02-13T06:37:04;103330.16;;;2.59;100.00
32237;BME280;18726;44.732;10.550;2023-02-13T06:40:09;103327.50;;;3.83;100.00
32237;BME280;18726;44.732;10.550;2023-02-13T06:43:13;103330.34;;;4.56;100.00
32237;BME280;18726;44.732;10.550;2023-02-13T06:46:17;103331.34;;;5.12;100.00
32237;BME280;18726;44.732;10.550;2023-02-13T06:49:21;103330.19;;;5.41;100.00
32237;BME280;18726;44.732;10.550;2023-02-13T06:52:24;103335.03;;;5.95;100.00
32237;BME280;18726;44.732;10.550;2023-02-13T06:55:28;103359.94;;;5.85;100.00
32237;BME280;18726;44.732;10.550;2023-02-13T06:58:31;103363.88;;;5.77;100.00
32237;BME280;18726;44.732;10.550;2023-02-13T07:01:36;103362.50;;;6.57;100.00
32237;BME280;18726;44.732;10.550;2023-02-13T07:04:40;103364.66;;;7.41;100.00
32237;BME280;18726;44.732;10.550;2023-02-13T07:07:44;103375.63;;;8.66;100.00
32237;BME280;18726;44.732;10.550;2023-02-13T07:10:48;103372.00;;;10.18;100.00
32237;BME280;18726;44.732;10.550;2023-02-13T07:13:51;103363.91;;;11.40;93.08
32237;BME280;18726;44.732;10.550;2023-02-13T07:16:56;103374.66;;;12.32;81.35
32237;BME280;18726;44.732;10.550;2023-02-13T07:19:59;103383.91;;;12.55;60.92
32237;BME280;18726;44.732;10.550;2023-02-13T07:23:04;103378.03;;;12.00;59.34
32237;BME280;18726;44.732;10.550;2023-02-13T07:26:08;103380.81;;;11.66;63.69
32237;BME280;18726;44.732;10.550;2023-02-13T07:29:13;103379.47;;;11.63;66.78
32237;BME280;18726;44.732;10.550;2023-02-13T07:32:16;103382.13;;;12.64;66.45
32237;BME280;18726;44.732;10.550;2023-02-13T07:35:19;103380.47;;;13.84;66.79
32237;BME280;18726;44.732;10.550;2023-02-13T07:38:23;103382.31;;;15.46;61.43
32237;BME280;18726;44.732;10.550;2023-02-13T07:41:27;103381.28;;;16.61;60.23
32237;BME280;18726;44.732;10.550;2023-02-13T07:44:30;103387.00;;;16.16;48.30
32237;BME280;18726;44.732;10.550;2023-02-13T07:47:34;103393.53;;;14.92;48.05
32237;BME280;18726;44.732;10.550;2023-02-13T07:50:38;103387.06;;;14.10;50.15
32237;BME280;18726;44.732;10.550;2023-02-13T07:53:41;103392.38;;;15.82;52.70
32237;BME280;18726;44.732;10.550;2023-02-13T07:56:45;103394.84;;;17.91;45.42
32237;BME280;18726;44.732;10.550;2023-02-13T07:59:49;103388.81;;;19.18;42.05
32237;BME280;18726;44.732;10.550;2023-02-13T08:02:53;103391.63;;;19.76;37.72
32237;BME280;18726;44.732;10.550;2023-02-13T08:05:57;103396.44;;;20.52;40.60
32237;BME280;18726;44.732;10.550;2023-02-13T08:09:01;103392.41;;;20.89;36.65
32237;BME280;18726;44.732;10.550;2023-02-13T08:12:25;103390.78;;;21.44;36.73
32237;BME280;18726;44.732;10.550;2023-02-13T08:15:28;103399.03;;;21.88;34.47
32237;BME280;18726;44.732;10.550;2023-02-13T08:18:32;103403.03;;;22.57;33.35
32237;BME280;18726;44.732;10.550;2023-02-13T08:21:35;103396.47;;;23.23;34.98
32237;BME280;18726;44.732;10.550;2023-02-13T08:24:40;103391.19;;;22.41;32.12
32237;BME280;18726;44.732;10.550;2023-02-13T08:27:44;103388.78;;;22.04;34.28
32237;BME280;18726;44.732;10.550;2023-02-13T08:30:48;103384.75;;;22.91;34.83
32237;BME280;18726;44.732;10.550;2023-02-13T08:33:54;103375.78;;;23.40;32.92
32237;BME280;18726;44.732;10.550;2023-02-13T08:36:59;103378.97;;;24.37;32.43
32237;BME280;18726;44.732;10.550;2023-02-13T08:40:03;103386.00;;;24.90;30.16
32237;BME280;18726;44.732;10.550;2023-02-13T08:43:07;103373.59;;;23.98;31.32
32237;BME280;18726;44.732;10.550;2023-02-13T08:46:11;103378.41;;;24.87;34.56
32237;BME280;18726;44.732;10.550;2023-02-13T08:49:14;103380.00;;;24.55;32.12
32237;BME280;18726;44.732;10.550;2023-02-13T08:52:18;103381.03;;;24.17;30.19
32237;BME280;18726;44.732;10.550;2023-02-13T08:55:21;103373.34;;;23.58;31.10
32237;BME280;18726;44.732;10.550;2023-02-13T08:58:25;103375.00;;;22.78;31.21
32237;BME280;18726;44.732;10.550;2023-02-13T09:01:28;103368.16;;;24.05;32.67
32237;BME280;18726;44.732;10.550;2023-02-13T09:04:32;103370.84;;;25.62;30.88
32237;BME280;18726;44.732;10.550;2023-02-13T09:07:35;103371.97;;;25.98;28.97
32237;BME280;18726;44.732;10.550;2023-02-13T09:10:39;103374.72;;;26.64;30.23
32237;BME280;18726;44.732;10.550;2023-02-13T09:13:43;103382.53;;;27.84;29.52
32237;BME280;18726;44.732;10.550;2023-02-13T09:16:47;103375.50;;;28.77;28.40
32237;BME280;18726;44.732;10.550;2023-02-13T09:19:50;103379.66;;;28.34;26.59
32237;BME280;18726;44.732;10.550;2023-02-13T09:22:54;103372.84;;;29.22;27.23
32237;BME280;18726;44.732;10.550;2023-02-13T09:26:00;103369.09;;;30.29;26.37
32237;BME280;18726;44.732;10.550;2023-02-13T09:29:05;103377.69;;;31.83;26.12
32237;BME280;18726;44.732;10.550;2023-02-13T09:32:09;103368.16;;;32.40;25.13
32237;BME280;18726;44.732;10.550;2023-02-13T09:35:12;103371.81;;;32.37;23.76
32237;BME280;18726;44.732;10.550;2023-02-13T09:38:17;103374.53;;;33.32;23.20
32237;BME280;18726;44.732;10.550;2023-02-13T09:41:29;103372.22;;;31.26;25.64
32237;BME280;18726;44.732;10.550;2023-02-13T09:44:37;103369.13;;;31.43;24.36
32237;BME280;18726;44.732;10.550;2023-02-13T09:47:44;103364.84;;;30.81;24.52
32237;BME280;18726;44.732;10.550;2023-02-13T09:50:49;103366.06;;;30.80;26.02
32237;BME280;18726;44.732;10.550;2023-02-13T09:54:00;103360.44;;;31.81;25.16
32237;BME280;18726;44.732;10.550;2023-02-13T09:57:16;103357.06;;;33.21;23.16
32237;BME280;18726;44.732;10.550;2023-02-13T10:00:36;103362.13;;;34.74;22.50
32237;BME280;18726;44.732;10.550;2023-02-13T10:14:38;103353.56;;;35.03;21.17
32237;BME280;18726;44.732;10.550;2023-02-13T10:17:44;103347.53;;;33.80;24.07
32237;BME280;18726;44.732;10.550;2023-02-13T10:20:56;103348.69;;;34.78;21.67
32237;BME280;18726;44.732;10.550;2023-02-13T10:24:09;103345.06;;;34.11;20.36
32237;BME280;18726;44.732;10.550;2023-02-13T10:27:23;103336.97;;;32.11;24.84
32237;BME280;18726;44.732;10.550;2023-02-13T10:30:31;103335.06;;;33.00;23.12
32237;BME280;18726;44.732;10.550;2023-02-13T10:33:50;103331.41;;;32.07;24.33
32237;BME280;18726;44.732;10.550;2023-02-13T10:36:54;103331.56;;;31.34;24.12
32237;BME280;18726;44.732;10.550;2023-02-13T10:39:58;103314.97;;;30.32;26.79
32237;BME280;18726;44.732;10.550;2023-02-13T10:43:10;103311.06;;;28.92;27.66
32237;BME280;18726;44.732;10.550;2023-02-13T10:59:22;103287.88;;;25.31;32.22
32237;BME280;18726;44.732;10.550;2023-02-13T11:02:31;103274.53;;;25.03;33.39
32237;BME280;18726;44.732;10.550;2023-02-13T11:05:38;103275.47;;;24.80;34.01
32237;BME280;18726;44.732;10.550;2023-02-13T11:08:44;103273.94;;;24.19;32.20
32237;BME280;18726;44.732;10.550;2023-02-13T11:11:48;103272.34;;;24.18;34.47
32237;BME280;18726;44.732;10.550;2023-02-13T11:15:04;103273.31;;;24.03;35.54
32237;BME280;18726;44.732;10.550;2023-02-13T11:18:18;103261.09;;;24.08;33.84
32237;BME280;18726;44.732;10.550;2023-02-13T11:21:33;103261.91;;;23.82;34.06
32237;BME280;18726;44.732;10.550;2023-02-13T11:24:41;103262.50;;;23.19;35.60
32237;BME280;18726;44.732;10.550;2023-02-13T11:27:47;103254.09;;;22.93;34.46
32237;BME280;18726;44.732;10.550;2023-02-13T11:30:52;103250.91;;;22.90;36.60
32237;BME280;18726;44.732;10.550;2023-02-13T11:33:57;103247.25;;;22.44;37.20
32237;BME280;18726;44.732;10.550;2023-02-13T11:37:18;103239.28;;;22.43;38.42
32237;BME280;18726;44.732;10.550;2023-02-13T11:40:30;103224.94;;;22.37;38.12
32237;BME280;18726;44.732;10.550;2023-02-13T11:43:42;103235.09;;;21.12;38.11
32237;BME280;18726;44.732;10.550;2023-02-13T11:46:49;103224.41;;;20.51;36.88
32237;BME280;18726;44.732;10.550;2023-02-13T11:49:53;103222.16;;;20.01;40.92
32237;BME280;18726;44.732;10.550;2023-02-13T11:53:05;103224.34;;;19.96;39.46
32237;BME280;18726;44.732;10.550;2023-02-13T11:56:13;103208.31;;;19.49;43.71
32237;BME280;18726;44.732;10.550;2023-02-13T11:59:17;103209.63;;;20.04;45.07
32237;BME280;18726;44.732;10.550;2023-02-13T12:02:29;103211.84;;;20.26;41.39
32237;BME280;18726;44.732;10.550;2023-02-13T12:05:33;103210.03;;;20.18;41.46
32237;BME280;18726;44.732;10.550;2023-02-13T12:08:47;103196.50;;;19.61;42.51
32237;BME280;18726;44.732;10.550;2023-02-13T12:11:53;103185.94;;;19.26;45.08
32237;BME280;18726;44.732;10.550;2023-02-13T12:15:01;103189.88;;;17.93;42.31
32237;BME280;18726;44.732;10.550;2023-02-13T12:18:20;103182.81;;;18.58;44.65
32237;BME280;18726;44.732;10.550;2023-02-13T12:28:18;103175.59;;;17.20;46.92
